Time;durP1;ratioP1;P1;durP2;ratioP2;P2;SDS_P1;SDS_P2;PMS_P1;PMS_P2;Temp;Humidity;BMP_temperature;BMP_pressure;BME280_temperature;BME280_humidity;BME280_pressure;Samples;Min_cycle;Max_cycle;Signal;HPM_P1;HPM_P2
2022/05/19 04:19:10;;;;;;;6.72;3.58;;;;;;;7.59;97.72;101676.16;5557495;32;217750;-87
2022/05/19 04:22:14;;;;;;;7.40;3.08;;;;;;;7.73;96.82;101674.16;5542001;32;32362;-87
2022/05/19 04:25:16;;;;;;;6.97;3.20;;;;;;;7.84;96.36;101683.69;5543383;32;35054;-87
2022/05/19 04:28:19;;;;;;;4.85;2.42;;;;;;;7.96;93.37;101688.75;5549772;32;32998;-87
2022/05/19 04:31:22;;;;;;;5.93;2.78;;;;;;;8.20;93.68;101687.41;5554204;32;34019;-87
2022/05/19 04:34:25;;;;;;;7.47;2.92;;;;;;;8.37;91.39;101688.88;5542318;32;32888;-87
2022/05/19 04:37:28;;;;;;;4.00;2.58;;;;;;;8.46;90.32;101687.81;5543199;32;33858;-85
2022/05/19 04:40:31;;;;;;;5.90;2.47;;;;;;;8.59;88.54;101693.75;5543770;32;34710;-86
2022/05/19 04:43:33;;;;;;;4.18;2.37;;;;;;;8.68;81.96;101692.69;5542206;32;32411;-86
2022/05/19 04:46:36;;;;;;;4.37;2.75;;;;;;;8.83;84.57;101694.16;5543257;32;34418;-85
2022/05/19 04:49:39;;;;;;;5.35;2.65;;;;;;;9.29;80.43;101693.16;5549288;32;33767;-87
2022/05/19 04:52:46;;;;;;;4.18;2.30;;;;;;;9.28;76.09;101690.53;5547045;32;33843;-86
2022/05/19 04:55:51;;;;;;;3.22;2.53;;;;;;;9.33;74.91;101693.06;5543076;32;33607;-86
2022/05/19 04:58:53;;;;;;;8.82;3.00;;;;;;;9.44;74.59;101694.56;5544191;32;34519;-87
2022/05/19 05:01:57;;;;;;;4.25;2.60;;;;;;;9.57;72.76;101695.13;5541871;32;33218;-86
2022/05/19 05:05:00;;;;;;;5.60;2.78;;;;;;;9.69;70.53;101698.37;5540238;32;32337;-87
2022/05/19 05:08:03;;;;;;;6.43;2.40;;;;;;;9.82;69.65;101697.16;5541748;32;33631;-86
2022/05/19 05:11:06;;;;;;;4.30;2.97;;;;;;;10.04;67.06;101699.25;5536660;32;33804;-86
2022/05/19 05:14:08;;;;;;;3.00;2.70;;;;;;;10.27;66.12;101700.44;5526960;32;32327;-86
2022/05/19 05:17:11;;;;;;;10.32;2.90;;;;;;;10.45;63.38;101699.09;5527639;32;32435;-86
2022/05/19 05:20:14;;;;;;;4.78;2.90;;;;;;;10.71;63.89;101696.62;5535834;32;34179;-86
2022/05/19 05:23:17;;;;;;;7.12;2.55;;;;;;;10.84;61.16;101699.75;5527883;32;32952;-90
2022/05/19 05:26:19;;;;;;;6.30;2.62;;;;;;;11.54;60.23;101703.81;5535152;32;32584;-87
2022/05/19 05:29:22;;;;;;;6.87;2.90;;;;;;;15.14;51.54;101697.63;5526554;32;33843;-87
2022/05/19 05:32:25;;;;;;;5.12;2.70;;;;;;;18.90;38.65;101696.62;5518263;32;34050;-87
2022/05/19 05:35:31;;;;;;;3.78;2.62;;;;;;;21.44;36.42;101697.28;5502161;32;32378;-87
2022/05/19 05:38:33;;;;;;;3.65;2.58;;;;;;;22.38;32.74;101697.31;5513882;32;32538;-87
2022/05/19 05:41:36;;;;;;;4.62;2.60;;;;;;;22.70;32.71;101696.62;5510787;32;33520;-87
2022/05/19 05:44:39;;;;;;;3.37;2.58;;;;;;;22.93;31.86;101706.56;5510202;32;33037;-87
2022/05/19 05:47:41;;;;;;;3.95;2.70;;;;;;;24.15;29.77;101695.53;5518834;32;34389;-87
2022/05/19 05:50:46;;;;;;;3.55;2.67;;;;;;;23.37;28.55;101701.16;5514583;32;32849;-87
2022/05/19 05:53:49;;;;;;;7.93;2.90;;;;;;;22.81;29.14;101703.84;5519029;32;34126;-87
2022/05/19 05:56:52;;;;;;;5.03;2.90;;;;;;;22.56;31.33;101707.66;5520114;32;33931;-87
2022/05/19 05:59:55;;;;;;;6.75;3.20;;;;;;;23.62;29.34;101702.69;5510549;32;32635;-87
2022/05/19 06:02:58;;;;;;;3.28;2.97;;;;;;;24.15;29.09;101703.66;5513136;32;34401;-87
2022/05/19 06:06:01;;;;;;;5.25;3.00;;;;;;;23.36;29.60;101699.47;5516053;32;34898;-86
2022/05/19 06:09:05;;;;;;;3.40;3.10;;;;;;;23.25;30.24;101703.03;5512220;32;32400;-87
2022/05/19 06:12:09;;;;;;;5.93;3.08;;;;;;;23.55;28.91;101698.78;5514073;32;34163;-86
2022/05/19 06:15:14;;;;;;;7.15;3.20;;;;;;;24.60;27.94;101688.88;5525368;32;33781;-86
2022/05/19 06:18:17;;;;;;;4.60;3.20;;;;;;;26.30;24.65;101697.03;5510971;32;33427;-86
2022/05/19 06:21:25;;;;;;;3.83;3.00;;;;;;;26.80;24.09;101678.59;5523042;32;32629;-87
2022/05/19 06:24:28;;;;;;;3.40;2.80;;;;;;;29.95;20.41;101687.66;5523829;32;34722;-87
2022/05/19 06:27:30;;;;;;;4.57;2.53;;;;;;;30.58;19.97;101696.06;5512629;32;32030;-86
2022/05/19 06:30:33;;;;;;;5.53;3.20;;;;;;;30.95;20.15;101690.06;5521074;32;34120;-87
2022/05/19 06:33:36;;;;;;;3.50;3.20;;;;;;;29.36;19.72;101699.59;5518794;32;32708;-87
2022/05/19 06:36:39;;;;;;;5.65;3.70;;;;;;;25.78;24.10;101703.66;5520148;32;34649;-83
2022/05/19 06:39:42;;;;;;;4.00;3.60;;;;;;;23.92;25.96;101697.47;5518437;32;32412;-86
2022/05/19 06:42:46;;;;;;;7.25;3.97;;;;;;;22.55;28.02;101701.41;5515240;32;33557;-88
2022/05/19 06:45:48;;;;;;;5.25;3.30;;;;;;;20.91;30.43;101687.66;5517602;32;33249;-86
2022/05/19 06:48:52;;;;;;;5.32;4.00;;;;;;;20.85;32.64;101697.06;5515934;32;33735;-87
2022/05/19 06:51:54;;;;;;;6.97;4.00;;;;;;;20.39;32.37;101702.06;5520442;32;32870;-87
2022/05/19 06:55:00;;;;;;;5.43;4.40;;;;;;;21.18;32.46;101700.97;5529732;32;34400;-88
2022/05/19 06:58:05;;;;;;;6.87;4.70;;;;;;;21.33;30.31;101698.97;5528723;32;34230;-88
2022/05/19 07:01:08;;;;;;;6.15;4.60;;;;;;;21.00;32.14;101693.25;5530291;32;32039;-88
2022/05/19 07:04:11;;;;;;;7.15;4.65;;;;;;;20.97;32.42;101700.72;5514909;32;33980;-88
2022/05/19 07:07:13;;;;;;;13.45;5.05;;;;;;;21.71;29.53;101696.22;5519400;32;33010;-89
2022/05/19 07:10:18;;;;;;;7.68;4.93;;;;;;;21.96;30.43;101691.63;5513182;32;34449;-90
2022/05/19 07:13:21;;;;;;;10.50;5.20;;;;;;;22.18;29.22;101697.03;5513003;32;32462;-90
2022/05/19 07:34:52;;;;;;;12.13;4.80;;;;;;;22.41;28.69;101693.50;5576827;26;20138;-89
2022/05/19 07:42:18;;;;;;;9.13;4.28;;;;;;;24.15;26.85;101678.41;5320064;30;20442;-86
2022/05/19 07:45:21;;;;;;;5.53;3.60;;;;;;;24.45;25.72;101666.69;5489797;32;35050;-86
2022/05/19 07:48:24;;;;;;;4.87;3.72;;;;;;;24.84;25.02;101673.28;5476306;32;32331;-87
2022/05/19 07:51:33;;;;;;;8.93;3.90;;;;;;;25.44;24.17;101666.91;5475716;32;32602;-85
2022/05/19 07:54:36;;;;;;;8.05;3.72;;;;;;;25.64;24.34;101659.63;5486767;32;33396;-86
2022/05/19 07:57:39;;;;;;;7.57;2.95;;;;;;;25.99;23.49;101665.44;5465788;32;33182;-85
2022/05/19 08:00:42;;;;;;;7.47;2.60;;;;;;;26.48;21.35;101662.59;5476926;32;32466;-86
2022/05/19 08:03:45;;;;;;;6.45;2.95;;;;;;;25.02;21.13;101658.03;5474495;32;32701;-85
2022/05/19 08:06:49;;;;;;;5.18;2.72;;;;;;;25.03;21.66;101659.75;5478176;32;33506;-88
2022/05/19 08:16:35;;;;;;;7.57;3.08;;;;;;;25.88;19.85;101669.19;5478570;32;32424;-88
2022/05/19 08:19:42;;;;;;;6.05;3.10;;;;;;;25.70;20.18;101666.38;5521288;26;34188;-87
2022/05/19 08:23:22;;;;;;;3.47;2.92;;;;;;;26.55;20.55;101671.00;4015914;30;20086;-88
2022/05/19 08:26:25;;;;;;;7.35;3.58;;;;;;;26.72;19.68;101665.75;5470988;32;32277;-87
2022/05/19 08:29:28;;;;;;;7.57;3.03;;;;;;;27.55;18.12;101666.63;5472034;32;32595;-87
2022/05/19 08:32:30;;;;;;;5.93;2.92;;;;;;;27.90;18.70;101664.84;5470658;32;32567;-88
2022/05/19 08:35:34;;;;;;;6.68;3.00;;;;;;;28.35;16.59;101660.22;5514507;26;33889;-89
2022/05/19 08:38:38;;;;;;;10.70;2.72;;;;;;;27.85;17.21;101659.88;5543600;32;33821;-90
2022/05/19 08:41:54;;;;;;;3.92;2.58;;;;;;;27.37;17.00;101655.72;5535307;32;32898;-86
2022/05/19 08:45:01;;;;;;;5.93;2.45;;;;;;;27.09;16.43;101653.94;5547903;32;34559;-87
2022/05/19 08:48:10;;;;;;;2.42;2.00;;;;;;;26.08;18.05;101655.53;5533610;32;32797;-87
2022/05/19 08:54:55;;;;;;;5.80;2.17;;;;;;;27.70;17.10;101653.28;3505714;26;20085;-87
2022/05/19 08:58:07;;;;;;;3.35;1.90;;;;;;;26.70;17.51;101655.00;5506886;32;32338;-87
2022/05/19 09:01:20;;;;;;;8.25;2.05;;;;;;;27.34;16.23;101654.16;5514680;32;32707;-88
2022/05/19 09:04:29;;;;;;;5.82;2.00;;;;;;;27.93;15.57;101652.78;5529725;32;34052;-87
2022/05/19 09:07:58;;;;;;;4.47;2.00;;;;;;;27.43;16.27;101650.53;5514378;32;32501;-90
2022/05/19 09:11:10;;;;;;;3.97;2.25;;;;;;;27.05;17.28;101641.62;5530035;32;33951;-87
2022/05/19 09:14:18;;;;;;;4.15;2.20;;;;;;;27.86;16.47;101644.41;5525564;32;32398;-88
2022/05/19 09:17:27;;;;;;;8.18;2.70;;;;;;;28.53;17.14;101642.88;5509479;32;32492;-87
2022/05/19 09:20:42;;;;;;;3.22;1.73;;;;;;;28.95;17.04;101649.34;5498653;32;32251;-87
2022/05/19 09:23:45;;;;;;;5.30;1.80;;;;;;;29.34;15.93;101650.59;5513886;32;32533;-87
2022/05/19 09:26:54;;;;;;;3.80;2.03;;;;;;;28.87;16.68;101650.16;5552122;26;34138;-87
2022/05/19 09:29:58;;;;;;;4.45;1.75;;;;;;;28.84;15.06;101635.97;5536196;32;33203;-87
2022/05/19 09:33:16;;;;;;;3.17;1.73;;;;;;;29.36;15.31;101639.50;5534999;32;32842;-87
2022/05/19 09:36:19;;;;;;;6.22;1.98;;;;;;;28.09;16.24;101622.88;5535182;32;34355;-88
2022/05/19 09:39:23;;;;;;;4.40;1.92;;;;;;;28.94;16.01;101633.97;5536862;32;32723;-88
2022/05/19 09:42:36;;;;;;;5.95;1.58;;;;;;;30.56;14.24;101626.94;5550852;32;34304;-87
2022/05/19 09:45:43;;;;;;;4.80;1.80;;;;;;;32.02;14.15;101627.19;5524354;32;32785;-89
2022/05/19 09:48:48;;;;;;;5.72;1.80;;;;;;;31.93;13.31;101626.44;5548527;32;32802;-89
2022/05/19 10:10:28;;;;;;;4.28;1.60;;;;;;;28.88;17.84;101602.75;5595614;26;20096;-89
2022/05/19 10:17:26;;;;;;;2.67;1.70;;;;;;;29.90;16.75;101602.53;2463097;26;20089;-86
2022/05/19 10:20:42;;;;;;;3.15;1.50;;;;;;;30.16;14.76;101596.84;5540296;32;33271;-89
2022/05/19 10:24:22;;;;;;;3.15;1.70;;;;;;;30.47;15.60;101589.69;5538541;32;32499;-86
2022/05/19 10:31:18;;;;;;;3.20;1.77;;;;;;;32.72;12.85;101586.47;5536826;32;33249;-86
2022/05/19 10:34:52;;;;;;;5.47;1.65;;;;;;;34.93;11.03;101582.56;5537263;32;33758;-90
2022/05/19 10:38:13;;;;;;;4.12;1.92;;;;;;;33.12;13.75;101571.47;5543900;32;34372;-89
2022/05/19 10:41:57;;;;;;;15.02;2.00;;;;;;;31.92;14.05;101562.47;5551109;32;34480;-87
2022/05/19 10:45:22;;;;;;;3.03;1.50;;;;;;;30.51;15.00;101566.38;5549787;32;34704;-86
2022/05/19 10:48:38;;;;;;;2.97;1.30;;;;;;;29.48;15.38;101567.09;5540873;32;33298;-87
2022/05/19 10:51:58;;;;;;;2.10;1.33;;;;;;;29.99;15.85;101546.78;5562262;32;34431;-88
2022/05/19 10:59:15;;;;;;;1.80;1.60;;;;;;;29.16;15.56;101546.97;2446788;30;20127;-87
2022/05/19 11:02:46;;;;;;;5.93;1.58;;;;;;;29.19;16.28;101546.59;5542451;26;33591;-88
2022/05/19 11:06:10;;;;;;;1.50;1.37;;;;;;;29.77;14.73;101540.19;5504074;32;32328;-87
2022/05/19 11:09:41;;;;;;;4.43;1.60;;;;;;;30.82;14.36;101543.62;5490379;32;33062;-88
2022/05/19 11:13:02;;;;;;;3.87;1.37;;;;;;;29.81;15.15;101522.44;5513430;32;32650;-89
2022/05/19 11:16:34;;;;;;;3.60;1.42;;;;;;;29.82;15.17;101524.13;5520798;32;35253;-91
2022/05/19 11:23:26;;;;;;;1.87;1.30;;;;;;;26.74;16.60;101516.78;3909272;30;20111;-88
2022/05/19 11:26:38;;;;;;;2.30;1.10;;;;;;;27.03;16.39;101515.69;5514545;32;33689;-89
2022/05/19 11:29:46;;;;;;;2.92;1.30;;;;;;;27.37;16.36;101514.06;5503954;32;32632;-90
2022/05/19 11:32:56;;;;;;;2.50;1.25;;;;;;;26.86;16.35;101511.97;5581849;26;33994;-88
2022/05/19 11:36:03;;;;;;;4.35;1.27;;;;;;;27.36;16.18;101504.19;5528509;32;33816;-89
2022/05/19 11:39:23;;;;;;;1.45;1.05;;;;;;;26.89;15.47;101498.88;5502281;32;32452;-89
2022/05/19 11:43:04;;;;;;;4.12;1.30;;;;;;;26.84;16.01;101498.50;5502491;32;34162;-89
2022/05/19 12:05:12;;;;;;;2.67;1.85;;;;;;;26.80;17.64;101471.75;984785;26;20392;-88
2022/05/19 12:08:28;;;;;;;3.42;1.58;;;;;;;26.77;17.79;101446.59;5495655;32;34037;-88
2022/05/19 12:15:31;;;;;;;2.08;1.50;;;;;;;25.52;18.49;101451.63;4349953;26;20092;-87
2022/05/19 12:20:59;;;;;;;2.60;1.45;;;;;;;26.73;18.25;101438.88;5556368;31;263422;-86
2022/05/19 12:24:08;;;;;;;3.25;1.52;;;;;;;26.73;18.25;101438.88;5481700;32;33719;-86
2022/05/19 12:27:19;;;;;;;3.78;1.50;;;;;;;26.31;17.99;101445.81;5461515;32;32205;-86
2022/05/19 12:34:03;;;;;;;2.42;1.35;;;;;;;26.02;18.15;101433.22;5484469;32;35143;-86
2022/05/19 12:37:10;;;;;;;4.50;1.60;;;;;;;26.05;17.74;101436.50;5471470;32;33063;-86
2022/05/19 12:40:24;;;;;;;3.30;1.40;;;;;;;25.98;17.71;101429.97;5472107;32;33403;-86
2022/05/19 12:43:37;;;;;;;1.70;1.45;;;;;;;25.67;18.75;101428.44;5477658;32;33130;-86
2022/05/19 12:46:45;;;;;;;4.28;1.37;;;;;;;25.22;19.13;101431.84;5483546;32;34399;-86
2022/05/19 12:50:09;;;;;;;4.78;1.67;;;;;;;25.45;18.17;101426.94;5470896;32;33087;-87
2022/05/19 12:53:21;;;;;;;3.72;1.45;;;;;;;25.59;18.39;101424.75;5483736;32;33561;-86
2022/05/19 12:56:49;;;;;;;1.42;1.20;;;;;;;25.44;18.83;101423.34;5472430;32;32786;-86
2022/05/19 13:00:11;;;;;;;3.53;1.30;;;;;;;25.28;18.95;101429.41;5534222;32;34560;-85
2022/05/19 13:03:17;;;;;;;4.15;1.33;;;;;;;25.09;18.78;101421.31;5533807;32;33751;-86
2022/05/19 13:06:22;;;;;;;4.00;1.65;;;;;;;24.73;18.20;101411.91;5534742;32;33574;-85
2022/05/19 13:09:31;;;;;;;2.05;1.25;;;;;;;25.11;19.10;101405.72;5537721;32;32335;-86
2022/05/19 13:12:46;;;;;;;7.93;2.03;;;;;;;25.39;19.23;101405.78;5539010;32;32623;-86
2022/05/19 13:15:56;;;;;;;4.80;1.70;;;;;;;25.31;18.46;101392.97;5539382;32;32483;-87
2022/05/19 13:22:27;;;;;;;7.22;1.30;;;;;;;24.77;18.55;101401.62;5561440;32;35097;-87
2022/05/19 13:25:33;;;;;;;7.40;2.17;;;;;;;25.24;18.65;101392.69;5549157;32;32953;-87
2022/05/19 13:32:01;;;;;;;7.18;2.12;;;;;;;24.99;18.52;101395.03;5517370;32;33612;-86
2022/05/19 13:35:17;;;;;;;2.92;1.90;;;;;;;24.98;18.22;101395.19;5516141;32;33312;-86
2022/05/19 13:38:23;;;;;;;1.50;1.40;;;;;;;25.11;18.44;101392.16;5531448;32;34470;-86
2022/05/19 13:41:26;;;;;;;1.80;1.48;;;;;;;25.38;18.17;101395.91;5533309;32;34518;-86
2022/05/19 13:44:35;;;;;;;4.60;1.77;;;;;;;25.43;18.17;101385.47;5530973;32;33890;-88
2022/05/19 13:47:41;;;;;;;4.23;1.80;;;;;;;25.39;18.79;101379.47;5531504;32;32767;-87
2022/05/19 13:50:44;;;;;;;2.70;1.70;;;;;;;25.29;18.70;101376.81;5530675;32;32669;-87
2022/05/19 13:53:52;;;;;;;4.22;1.60;;;;;;;25.35;18.50;101386.22;5548199;32;34811;-88
2022/05/19 13:57:05;;;;;;;4.05;1.87;;;;;;;25.22;18.88;101372.97;5550675;32;33899;-87
2022/05/19 14:00:12;;;;;;;3.20;1.67;;;;;;;24.87;18.66;101369.94;5548760;32;35214;-87
2022/05/19 14:03:18;;;;;;;2.10;1.70;;;;;;;24.50;18.75;101365.28;5553028;32;34236;-87
2022/05/19 14:06:26;;;;;;;1.75;1.20;;;;;;;24.91;17.86;101365.09;5538751;32;34366;-87
2022/05/19 14:09:56;;;;;;;10.23;1.42;;;;;;;25.11;18.21;101356.88;5552870;32;34972;-90
2022/05/19 14:13:02;;;;;;;4.47;1.80;;;;;;;25.24;17.75;101351.97;5538106;32;33063;-88
2022/05/19 14:16:08;;;;;;;3.58;1.50;;;;;;;25.00;19.06;101350.62;5523462;32;35921;-87
2022/05/19 14:19:37;;;;;;;3.60;1.62;;;;;;;24.95;18.90;101357.50;5533811;32;32861;-87
2022/05/19 14:22:40;;;;;;;6.22;1.42;;;;;;;25.11;19.27;101351.44;5544831;32;33882;-87
2022/05/19 14:25:44;;;;;;;3.97;1.73;;;;;;;25.14;19.65;101334.87;5531467;32;35175;-86
2022/05/19 14:28:48;;;;;;;5.37;2.05;;;;;;;25.22;19.39;101342.25;5516590;32;33323;-86
2022/05/19 14:31:58;;;;;;;5.70;1.87;;;;;;;25.07;19.09;101341.87;5533023;32;32484;-86
2022/05/19 14:35:17;;;;;;;6.65;2.03;;;;;;;25.12;19.80;101337.72;5547965;32;33834;-86
2022/05/19 14:38:32;;;;;;;3.67;1.60;;;;;;;25.27;19.34;101323.66;5535829;32;32579;-86
2022/05/19 14:44:57;;;;;;;3.08;1.80;;;;;;;25.34;18.64;101322.03;5522851;32;32832;-85
2022/05/19 14:48:01;;;;;;;2.20;2.00;;;;;;;24.50;19.98;101314.59;5539508;32;34939;-85
2022/05/19 14:51:12;;;;;;;2.10;1.90;;;;;;;24.33;20.08;101318.91;5544220;32;32893;-85
2022/05/19 14:54:21;;;;;;;2.58;1.73;;;;;;;24.65;19.43;101316.00;5536944;32;32669;-89
2022/05/19 14:57:24;;;;;;;8.85;2.00;;;;;;;24.53;20.67;101310.72;5559796;32;34979;-86
2022/05/19 15:00:31;;;;;;;4.47;2.28;;;;;;;24.67;19.52;101312.13;5548798;32;32604;-86
2022/05/19 15:03:34;;;;;;;5.20;1.87;;;;;;;24.79;20.76;101303.81;5547898;32;34885;-86
2022/05/19 15:06:38;;;;;;;7.90;2.05;;;;;;;24.61;20.61;101302.75;5535861;32;33681;-85
2022/05/19 15:09:41;;;;;;;2.10;1.80;;;;;;;24.61;21.15;101305.44;5518058;32;33887;-85
2022/05/19 15:12:46;;;;;;;3.37;2.00;;;;;;;24.25;21.54;101307.94;5514319;32;34949;-85
2022/05/19 15:15:49;;;;;;;2.75;2.20;;;;;;;24.55;21.08;101307.87;5531596;32;33882;-85
2022/05/19 15:18:52;;;;;;;3.67;1.80;;;;;;;24.75;20.50;101305.97;5528819;32;34303;-85
2022/05/19 15:21:56;;;;;;;2.35;1.80;;;;;;;24.59;21.24;101304.72;5528699;32;34013;-86
2022/05/19 15:24:59;;;;;;;2.37;1.83;;;;;;;24.60;21.01;101301.00;5528808;32;34285;-86
2022/05/19 15:28:03;;;;;;;3.22;1.85;;;;;;;24.35;20.61;101287.06;5528573;32;33931;-86
2022/05/19 15:31:11;;;;;;;3.15;1.92;;;;;;;24.30;21.92;101292.09;5518621;32;32692;-86
2022/05/19 15:34:23;;;;;;;9.27;2.12;;;;;;;24.42;21.57;101275.62;5529747;32;33959;-86
2022/05/19 15:37:26;;;;;;;2.70;1.90;;;;;;;24.47;20.49;101276.94;5518459;32;32604;-86
2022/05/19 15:40:30;;;;;;;2.85;1.70;;;;;;;24.40;20.68;101267.66;5534572;32;32998;-86
2022/05/19 15:43:36;;;;;;;4.10;1.95;;;;;;;24.05;22.01;101277.22;5535825;32;32830;-86
